sensor_id;sensor_type;location;lat;lon;timestamp;P1;durP1;ratioP1;P2;durP2;ratioP2
18316;SDS011;9284;52.298;21.164;2024-03-22T00:01:48;55.42;;;26.45;;
18316;SDS011;9284;52.298;21.164;2024-03-22T00:04:16;54.55;;;25.58;;
18316;SDS011;9284;52.298;21.164;2024-03-22T00:06:43;51.65;;;25.70;;
18316;SDS011;9284;52.298;21.164;2024-03-22T00:09:12;52.67;;;25.67;;
18316;SDS011;9284;52.298;21.164;2024-03-22T00:11:39;52.13;;;25.13;;
18316;SDS011;9284;52.298;21.164;2024-03-22T00:14:07;45.33;;;22.70;;
18316;SDS011;9284;52.298;21.164;2024-03-22T00:16:34;49.40;;;23.88;;
18316;SDS011;9284;52.298;21.164;2024-03-22T00:19:03;55.80;;;26.23;;
18316;SDS011;9284;52.298;21.164;2024-03-22T00:21:29;50.83;;;24.85;;
18316;SDS011;9284;52.298;21.164;2024-03-22T00:23:56;54.25;;;27.27;;
18316;SDS011;9284;52.298;21.164;2024-03-22T00:26:23;57.05;;;27.60;;
18316;SDS011;9284;52.298;21.164;2024-03-22T00:28:50;57.30;;;27.63;;
18316;SDS011;9284;52.298;21.164;2024-03-22T00:31:16;62.08;;;29.60;;
18316;SDS011;9284;52.298;21.164;2024-03-22T00:33:44;59.05;;;28.58;;
18316;SDS011;9284;52.298;21.164;2024-03-22T00:36:11;53.15;;;27.13;;
18316;SDS011;9284;52.298;21.164;2024-03-22T00:38:39;58.42;;;27.80;;
18316;SDS011;9284;52.298;21.164;2024-03-22T00:41:05;57.25;;;27.35;;
18316;SDS011;9284;52.298;21.164;2024-03-22T00:43:33;56.80;;;26.83;;
18316;SDS011;9284;52.298;21.164;2024-03-22T00:45:59;61.78;;;27.48;;
18316;SDS011;9284;52.298;21.164;2024-03-22T00:48:28;59.92;;;28.48;;
18316;SDS011;9284;52.298;21.164;2024-03-22T00:50:54;56.42;;;27.42;;
18316;SDS011;9284;52.298;21.164;2024-03-22T00:53:23;59.00;;;28.92;;
18316;SDS011;9284;52.298;21.164;2024-03-22T00:55:49;62.08;;;29.92;;
18316;SDS011;9284;52.298;21.164;2024-03-22T00:58:17;56.75;;;28.42;;
18316;SDS011;9284;52.298;21.164;2024-03-22T01:00:44;57.20;;;27.30;;
18316;SDS011;9284;52.298;21.164;2024-03-22T01:03:11;58.30;;;29.02;;
18316;SDS011;9284;52.298;21.164;2024-03-22T01:05:37;61.83;;;29.42;;
18316;SDS011;9284;52.298;21.164;2024-03-22T01:08:06;63.90;;;29.65;;
18316;SDS011;9284;52.298;21.164;2024-03-22T01:10:34;64.20;;;30.85;;
18316;SDS011;9284;52.298;21.164;2024-03-22T01:13:01;61.00;;;29.90;;
18316;SDS011;9284;52.298;21.164;2024-03-22T01:15:28;66.45;;;31.05;;
18316;SDS011;9284;52.298;21.164;2024-03-22T01:17:55;61.47;;;30.75;;
18316;SDS011;9284;52.298;21.164;2024-03-22T01:20:22;68.00;;;33.00;;
18316;SDS011;9284;52.298;21.164;2024-03-22T01:22:49;72.65;;;33.22;;
18316;SDS011;9284;52.298;21.164;2024-03-22T01:25:16;64.88;;;32.40;;
18316;SDS011;9284;52.298;21.164;2024-03-22T01:27:44;72.20;;;34.40;;
18316;SDS011;9284;52.298;21.164;2024-03-22T01:30:11;74.50;;;34.60;;
18316;SDS011;9284;52.298;21.164;2024-03-22T01:32:37;72.05;;;32.38;;
18316;SDS011;9284;52.298;21.164;2024-03-22T01:35:04;73.85;;;35.88;;
18316;SDS011;9284;52.298;21.164;2024-03-22T01:37:31;78.60;;;35.47;;
18316;SDS011;9284;52.298;21.164;2024-03-22T01:39:58;82.13;;;35.22;;
18316;SDS011;9284;52.298;21.164;2024-03-22T01:42:25;72.47;;;35.55;;
18316;SDS011;9284;52.298;21.164;2024-03-22T01:44:53;75.15;;;34.20;;
18316;SDS011;9284;52.298;21.164;2024-03-22T01:47:20;74.80;;;35.47;;
18316;SDS011;9284;52.298;21.164;2024-03-22T01:49:47;78.18;;;34.58;;
18316;SDS011;9284;52.298;21.164;2024-03-22T01:52:14;74.70;;;33.72;;
18316;SDS011;9284;52.298;21.164;2024-03-22T01:54:42;79.40;;;36.50;;
18316;SDS011;9284;52.298;21.164;2024-03-22T01:57:08;86.45;;;37.13;;
18316;SDS011;9284;52.298;21.164;2024-03-22T01:59:35;85.97;;;36.35;;
18316;SDS011;9284;52.298;21.164;2024-03-22T02:02:03;90.22;;;38.60;;
18316;SDS011;9284;52.298;21.164;2024-03-22T02:04:31;88.78;;;38.72;;
18316;SDS011;9284;52.298;21.164;2024-03-22T02:06:57;94.38;;;40.92;;
18316;SDS011;9284;52.298;21.164;2024-03-22T02:09:24;97.72;;;40.13;;
18316;SDS011;9284;52.298;21.164;2024-03-22T02:11:51;90.38;;;40.90;;
18316;SDS011;9284;52.298;21.164;2024-03-22T02:14:18;101.88;;;42.80;;
18316;SDS011;9284;52.298;21.164;2024-03-22T02:16:45;106.75;;;43.60;;
18316;SDS011;9284;52.298;21.164;2024-03-22T02:19:13;109.30;;;44.38;;
18316;SDS011;9284;52.298;21.164;2024-03-22T02:21:40;113.65;;;47.67;;
18316;SDS011;9284;52.298;21.164;2024-03-22T02:24:08;113.70;;;45.88;;
18316;SDS011;9284;52.298;21.164;2024-03-22T02:26:35;115.88;;;47.53;;
18316;SDS011;9284;52.298;21.164;2024-03-22T02:29:02;133.48;;;49.35;;
18316;SDS011;9284;52.298;21.164;2024-03-22T02:31:28;117.22;;;47.83;;
18316;SDS011;9284;52.298;21.164;2024-03-22T02:33:55;114.30;;;45.75;;
18316;SDS011;9284;52.298;21.164;2024-03-22T02:36:22;119.85;;;46.70;;
18316;SDS011;9284;52.298;21.164;2024-03-22T02:38:49;125.75;;;48.25;;
18316;SDS011;9284;52.298;21.164;2024-03-22T02:41:17;123.57;;;47.35;;
18316;SDS011;9284;52.298;21.164;2024-03-22T02:43:44;126.78;;;48.42;;
18316;SDS011;9284;52.298;21.164;2024-03-22T02:46:10;127.95;;;48.78;;
18316;SDS011;9284;52.298;21.164;2024-03-22T02:48:37;129.20;;;47.88;;
18316;SDS011;9284;52.298;21.164;2024-03-22T02:51:04;133.68;;;49.78;;
18316;SDS011;9284;52.298;21.164;2024-03-22T02:53:31;131.25;;;48.67;;
18316;SDS011;9284;52.298;21.164;2024-03-22T02:55:59;133.30;;;48.00;;
18316;SDS011;9284;52.298;21.164;2024-03-22T02:58:28;126.65;;;47.50;;
18316;SDS011;9284;52.298;21.164;2024-03-22T03:00:55;133.48;;;49.53;;
18316;SDS011;9284;52.298;21.164;2024-03-22T03:03:23;121.72;;;46.95;;
18316;SDS011;9284;52.298;21.164;2024-03-22T03:05:49;118.47;;;44.83;;
18316;SDS011;9284;52.298;21.164;2024-03-22T03:08:17;114.75;;;43.20;;
18316;SDS011;9284;52.298;21.164;2024-03-22T03:10:44;126.15;;;44.92;;
18316;SDS011;9284;52.298;21.164;2024-03-22T03:13:11;111.05;;;43.80;;
18316;SDS011;9284;52.298;21.164;2024-03-22T03:15:39;121.43;;;42.08;;
18316;SDS011;9284;52.298;21.164;2024-03-22T03:18:06;126.82;;;43.60;;
18316;SDS011;9284;52.298;21.164;2024-03-22T03:20:32;115.38;;;41.55;;
18316;SDS011;9284;52.298;21.164;2024-03-22T03:22:59;124.70;;;43.10;;
18316;SDS011;9284;52.298;21.164;2024-03-22T03:25:27;122.55;;;41.40;;
18316;SDS011;9284;52.298;21.164;2024-03-22T03:27:54;122.22;;;42.05;;
18316;SDS011;9284;52.298;21.164;2024-03-22T03:30:20;117.03;;;41.65;;
18316;SDS011;9284;52.298;21.164;2024-03-22T03:32:49;115.97;;;40.55;;
18316;SDS011;9284;52.298;21.164;2024-03-22T03:35:15;111.22;;;40.40;;
18316;SDS011;9284;52.298;21.164;2024-03-22T03:37:42;119.72;;;39.38;;
18316;SDS011;9284;52.298;21.164;2024-03-22T03:40:09;114.43;;;39.22;;
18316;SDS011;9284;52.298;21.164;2024-03-22T03:42:36;113.85;;;38.55;;
18316;SDS011;9284;52.298;21.164;2024-03-22T03:45:03;113.65;;;38.92;;
18316;SDS011;9284;52.298;21.164;2024-03-22T03:47:30;115.57;;;39.00;;
18316;SDS011;9284;52.298;21.164;2024-03-22T03:49:58;118.43;;;41.72;;
18316;SDS011;9284;52.298;21.164;2024-03-22T03:52:25;104.20;;;38.15;;
18316;SDS011;9284;52.298;21.164;2024-03-22T03:54:51;109.15;;;37.38;;
18316;SDS011;9284;52.298;21.164;2024-03-22T03:57:19;102.57;;;36.50;;
18316;SDS011;9284;52.298;21.164;2024-03-22T03:59:45;108.15;;;37.75;;
18316;SDS011;9284;52.298;21.164;2024-03-22T04:02:12;115.78;;;39.60;;
18316;SDS011;9284;52.298;21.164;2024-03-22T04:04:39;106.68;;;36.25;;
18316;SDS011;9284;52.298;21.164;2024-03-22T04:07:07;99.40;;;38.33;;
18316;SDS011;9284;52.298;21.164;2024-03-22T04:09:34;112.43;;;37.10;;
18316;SDS011;9284;52.298;21.164;2024-03-22T04:12:01;101.82;;;36.90;;
18316;SDS011;9284;52.298;21.164;2024-03-22T04:14:27;111.38;;;37.80;;
18316;SDS011;9284;52.298;21.164;2024-03-22T04:16:55;108.80;;;36.30;;
18316;SDS011;9284;52.298;21.164;2024-03-22T04:19:21;100.88;;;36.13;;
18316;SDS011;9284;52.298;21.164;2024-03-22T04:21:49;101.35;;;35.45;;
18316;SDS011;9284;52.298;21.164;2024-03-22T04:24:17;100.90;;;36.58;;
18316;SDS011;9284;52.298;21.164;2024-03-22T04:26:44;95.30;;;36.65;;
18316;SDS011;9284;52.298;21.164;2024-03-22T04:29:11;87.97;;;33.40;;
18316;SDS011;9284;52.298;21.164;2024-03-22T04:31:38;96.93;;;35.53;;
18316;SDS011;9284;52.298;21.164;2024-03-22T04:34:04;96.03;;;35.05;;
18316;SDS011;9284;52.298;21.164;2024-03-22T04:36:32;98.32;;;35.60;;
18316;SDS011;9284;52.298;21.164;2024-03-22T04:39:00;96.13;;;35.83;;
18316;SDS011;9284;52.298;21.164;2024-03-22T04:41:30;86.50;;;34.28;;
18316;SDS011;9284;52.298;21.164;2024-03-22T04:43:57;100.95;;;36.47;;
18316;SDS011;9284;52.298;21.164;2024-03-22T04:46:25;95.45;;;35.45;;
18316;SDS011;9284;52.298;21.164;2024-03-22T04:48:52;91.22;;;34.75;;
18316;SDS011;9284;52.298;21.164;2024-03-22T04:51:18;90.88;;;35.28;;
18316;SDS011;9284;52.298;21.164;2024-03-22T04:53:45;104.57;;;36.58;;
18316;SDS011;9284;52.298;21.164;2024-03-22T04:56:12;94.20;;;35.97;;
18316;SDS011;9284;52.298;21.164;2024-03-22T04:58:40;102.03;;;36.83;;
18316;SDS011;9284;52.298;21.164;2024-03-22T05:01:06;95.88;;;35.55;;
18316;SDS011;9284;52.298;21.164;2024-03-22T05:03:34;103.40;;;37.35;;
18316;SDS011;9284;52.298;21.164;2024-03-22T05:06:00;100.43;;;36.28;;
18316;SDS011;9284;52.298;21.164;2024-03-22T05:08:28;96.95;;;34.85;;
18316;SDS011;9284;52.298;21.164;2024-03-22T05:10:55;101.82;;;35.08;;
18316;SDS011;9284;52.298;21.164;2024-03-22T05:13:22;96.57;;;35.60;;
18316;SDS011;9284;52.298;21.164;2024-03-22T05:15:50;92.18;;;34.03;;
18316;SDS011;9284;52.298;21.164;2024-03-22T05:18:17;89.30;;;34.40;;
18316;SDS011;9284;52.298;21.164;2024-03-22T05:20:43;99.15;;;35.72;;
18316;SDS011;9284;52.298;21.164;2024-03-22T05:23:11;94.05;;;35.75;;
18316;SDS011;9284;52.298;21.164;2024-03-22T05:25:37;99.90;;;34.90;;
18316;SDS011;9284;52.298;21.164;2024-03-22T05:28:04;86.28;;;33.88;;
18316;SDS011;9284;52.298;21.164;2024-03-22T05:30:30;99.18;;;37.90;;
18316;SDS011;9284;52.298;21.164;2024-03-22T05:33:02;102.50;;;38.63;;
18316;SDS011;9284;52.298;21.164;2024-03-22T05:35:28;103.10;;;36.47;;
18316;SDS011;9284;52.298;21.164;2024-03-22T05:37:56;106.75;;;38.72;;
18316;SDS011;9284;52.298;21.164;2024-03-22T05:40:22;113.10;;;39.38;;
18316;SDS011;9284;52.298;21.164;2024-03-22T05:42:49;104.95;;;37.97;;
18316;SDS011;9284;52.298;21.164;2024-03-22T05:45:16;103.15;;;36.55;;
18316;SDS011;9284;52.298;21.164;2024-03-22T05:47:43;95.93;;;36.03;;
18316;SDS011;9284;52.298;21.164;2024-03-22T05:50:11;97.03;;;35.10;;
18316;SDS011;9284;52.298;21.164;2024-03-22T05:52:40;94.25;;;34.38;;
18316;SDS011;9284;52.298;21.164;2024-03-22T05:55:06;94.35;;;34.25;;
18316;SDS011;9284;52.298;21.164;2024-03-22T05:57:33;89.97;;;33.45;;
18316;SDS011;9284;52.298;21.164;2024-03-22T06:00:00;84.15;;;32.45;;
18316;SDS011;9284;52.298;21.164;2024-03-22T06:02:30;88.45;;;32.90;;
18316;SDS011;9284;52.298;21.164;2024-03-22T06:04:58;85.97;;;33.08;;
18316;SDS011;9284;52.298;21.164;2024-03-22T06:07:27;89.00;;;34.00;;
18316;SDS011;9284;52.298;21.164;2024-03-22T06:09:53;93.57;;;33.70;;
18316;SDS011;9284;52.298;21.164;2024-03-22T06:12:21;90.97;;;33.40;;
18316;SDS011;9284;52.298;21.164;2024-03-22T06:14:47;81.13;;;32.88;;
18316;SDS011;9284;52.298;21.164;2024-03-22T06:17:16;79.90;;;30.30;;
18316;SDS011;9284;52.298;21.164;2024-03-22T06:19:42;69.05;;;29.23;;
18316;SDS011;9284;52.298;21.164;2024-03-22T06:22:09;80.05;;;29.88;;
18316;SDS011;9284;52.298;21.164;2024-03-22T06:24:37;75.38;;;29.63;;
18316;SDS011;9284;52.298;21.164;2024-03-22T06:27:05;75.07;;;29.70;;
18316;SDS011;9284;52.298;21.164;2024-03-22T06:29:32;79.03;;;31.80;;
18316;SDS011;9284;52.298;21.164;2024-03-22T06:32:00;69.05;;;29.55;;
18316;SDS011;9284;52.298;21.164;2024-03-22T06:34:26;69.07;;;29.35;;
18316;SDS011;9284;52.298;21.164;2024-03-22T06:36:53;80.95;;;34.28;;
18316;SDS011;9284;52.298;21.164;2024-03-22T06:39:19;78.55;;;33.00;;
18316;SDS011;9284;52.298;21.164;2024-03-22T06:41:48;77.55;;;29.73;;
18316;SDS011;9284;52.298;21.164;2024-03-22T06:44:14;69.30;;;29.58;;
18316;SDS011;9284;52.298;21.164;2024-03-22T06:46:41;76.88;;;32.03;;
18316;SDS011;9284;52.298;21.164;2024-03-22T06:49:08;69.63;;;29.27;;
18316;SDS011;9284;52.298;21.164;2024-03-22T06:51:35;65.35;;;27.00;;
18316;SDS011;9284;52.298;21.164;2024-03-22T06:54:02;66.03;;;27.00;;
18316;SDS011;9284;52.298;21.164;2024-03-22T06:56:29;64.57;;;27.50;;
18316;SDS011;9284;52.298;21.164;2024-03-22T06:58:57;67.53;;;27.70;;
18316;SDS011;9284;52.298;21.164;2024-03-22T07:01:24;68.68;;;28.85;;
18316;SDS011;9284;52.298;21.164;2024-03-22T07:03:50;73.28;;;30.98;;
18316;SDS011;9284;52.298;21.164;2024-03-22T07:06:18;74.57;;;31.45;;
18316;SDS011;9284;52.298;21.164;2024-03-22T07:08:44;72.50;;;29.60;;
18316;SDS011;9284;52.298;21.164;2024-03-22T07:11:12;77.85;;;32.78;;
18316;SDS011;9284;52.298;21.164;2024-03-22T07:13:38;67.32;;;29.02;;
18316;SDS011;9284;52.298;21.164;2024-03-22T07:16:07;68.47;;;28.85;;
18316;SDS011;9284;52.298;21.164;2024-03-22T07:18:33;85.18;;;33.58;;
18316;SDS011;9284;52.298;21.164;2024-03-22T07:21:00;73.28;;;30.30;;
18316;SDS011;9284;52.298;21.164;2024-03-22T07:23:27;72.60;;;30.10;;
18316;SDS011;9284;52.298;21.164;2024-03-22T07:25:54;71.72;;;28.85;;
18316;SDS011;9284;52.298;21.164;2024-03-22T07:28:21;68.95;;;29.30;;
18316;SDS011;9284;52.298;21.164;2024-03-22T07:30:48;69.00;;;28.73;;
18316;SDS011;9284;52.298;21.164;2024-03-22T07:33:16;66.47;;;26.20;;
18316;SDS011;9284;52.298;21.164;2024-03-22T07:35:43;62.22;;;26.05;;
18316;SDS011;9284;52.298;21.164;2024-03-22T07:38:09;54.78;;;24.52;;
18316;SDS011;9284;52.298;21.164;2024-03-22T07:40:37;59.10;;;23.92;;
18316;SDS011;9284;52.298;21.164;2024-03-22T07:43:03;48.95;;;23.23;;
18316;SDS011;9284;52.298;21.164;2024-03-22T07:45:32;51.70;;;23.90;;
18316;SDS011;9284;52.298;21.164;2024-03-22T07:48:00;52.70;;;23.48;;
18316;SDS011;9284;52.298;21.164;2024-03-22T07:50:28;60.42;;;23.55;;
18316;SDS011;9284;52.298;21.164;2024-03-22T07:52:54;53.70;;;23.98;;
18316;SDS011;9284;52.298;21.164;2024-03-22T07:55:22;53.28;;;22.73;;
18316;SDS011;9284;52.298;21.164;2024-03-22T07:57:48;52.22;;;22.63;;
18316;SDS011;9284;52.298;21.164;2024-03-22T08:00:16;53.45;;;22.73;;
18316;SDS011;9284;52.298;21.164;2024-03-22T08:02:42;52.08;;;22.73;;
18316;SDS011;9284;52.298;21.164;2024-03-22T08:05:09;51.65;;;22.50;;
18316;SDS011;9284;52.298;21.164;2024-03-22T08:07:37;53.03;;;22.48;;
18316;SDS011;9284;52.298;21.164;2024-03-22T08:10:06;47.95;;;22.13;;
18316;SDS011;9284;52.298;21.164;2024-03-22T08:12:32;52.85;;;21.85;;
18316;SDS011;9284;52.298;21.164;2024-03-22T08:14:59;43.50;;;20.20;;
18316;SDS011;9284;52.298;21.164;2024-03-22T08:17:26;47.72;;;20.13;;
18316;SDS011;9284;52.298;21.164;2024-03-22T08:19:53;43.85;;;19.65;;
18316;SDS011;9284;52.298;21.164;2024-03-22T08:22:19;45.83;;;19.88;;
18316;SDS011;9284;52.298;21.164;2024-03-22T08:24:48;44.72;;;19.25;;
18316;SDS011;9284;52.298;21.164;2024-03-22T08:27:14;39.58;;;19.85;;
18316;SDS011;9284;52.298;21.164;2024-03-22T08:29:41;44.17;;;19.00;;
18316;SDS011;9284;52.298;21.164;2024-03-22T08:32:07;42.13;;;18.80;;
18316;SDS011;9284;52.298;21.164;2024-03-22T08:34:35;41.05;;;19.40;;
18316;SDS011;9284;52.298;21.164;2024-03-22T08:37:01;43.85;;;20.55;;
18316;SDS011;9284;52.298;21.164;2024-03-22T08:39:29;41.53;;;19.92;;
18316;SDS011;9284;52.298;21.164;2024-03-22T08:41:57;46.63;;;20.30;;
18316;SDS011;9284;52.298;21.164;2024-03-22T08:44:24;44.00;;;20.00;;
18316;SDS011;9284;52.298;21.164;2024-03-22T08:46:51;45.67;;;20.67;;
18316;SDS011;9284;52.298;21.164;2024-03-22T08:49:18;47.78;;;21.27;;
18316;SDS011;9284;52.298;21.164;2024-03-22T08:51:44;44.42;;;19.48;;
18316;SDS011;9284;52.298;21.164;2024-03-22T08:54:13;45.30;;;19.67;;
18316;SDS011;9284;52.298;21.164;2024-03-22T08:56:40;42.58;;;19.98;;
18316;SDS011;9284;52.298;21.164;2024-03-22T08:59:08;44.90;;;19.17;;
18316;SDS011;9284;52.298;21.164;2024-03-22T09:01:35;45.85;;;20.00;;
18316;SDS011;9284;52.298;21.164;2024-03-22T09:04:03;46.08;;;20.90;;
18316;SDS011;9284;52.298;21.164;2024-03-22T09:06:29;43.17;;;20.08;;
18316;SDS011;9284;52.298;21.164;2024-03-22T09:08:57;46.05;;;21.35;;
18316;SDS011;9284;52.298;21.164;2024-03-22T09:11:24;50.22;;;23.25;;
18316;SDS011;9284;52.298;21.164;2024-03-22T09:13:51;50.30;;;22.30;;
18316;SDS011;9284;52.298;21.164;2024-03-22T09:16:20;45.30;;;22.52;;
18316;SDS011;9284;52.298;21.164;2024-03-22T09:18:46;52.63;;;21.63;;
18316;SDS011;9284;52.298;21.164;2024-03-22T09:21:14;49.13;;;22.00;;
18316;SDS011;9284;52.298;21.164;2024-03-22T09:23:40;45.00;;;21.85;;
18316;SDS011;9284;52.298;21.164;2024-03-22T09:26:07;52.30;;;21.88;;
18316;SDS011;9284;52.298;21.164;2024-03-22T09:28:34;42.47;;;20.77;;
18316;SDS011;9284;52.298;21.164;2024-03-22T09:31:05;43.05;;;20.17;;
18316;SDS011;9284;52.298;21.164;2024-03-22T09:33:33;44.45;;;19.42;;
18316;SDS011;9284;52.298;21.164;2024-03-22T09:36:01;41.97;;;18.75;;
18316;SDS011;9284;52.298;21.164;2024-03-22T09:38:27;42.33;;;18.63;;
18316;SDS011;9284;52.298;21.164;2024-03-22T09:40:55;38.53;;;17.40;;
18316;SDS011;9284;52.298;21.164;2024-03-22T09:43:21;40.60;;;18.92;;
18316;SDS011;9284;52.298;21.164;2024-03-22T09:45:50;41.97;;;18.67;;
18316;SDS011;9284;52.298;21.164;2024-03-22T09:48:19;38.25;;;17.73;;
18316;SDS011;9284;52.298;21.164;2024-03-22T09:50:48;35.72;;;17.05;;
18316;SDS011;9284;52.298;21.164;2024-03-22T09:53:16;34.55;;;16.95;;
18316;SDS011;9284;52.298;21.164;2024-03-22T09:55:45;37.38;;;17.08;;
18316;SDS011;9284;52.298;21.164;2024-03-22T09:58:13;33.55;;;16.25;;
18316;SDS011;9284;52.298;21.164;2024-03-22T10:00:42;34.58;;;17.45;;
18316;SDS011;9284;52.298;21.164;2024-03-22T10:03:08;38.53;;;17.88;;
18316;SDS011;9284;52.298;21.164;2024-03-22T10:05:37;35.90;;;17.77;;
18316;SDS011;9284;52.298;21.164;2024-03-22T10:08:05;43.10;;;19.23;;
18316;SDS011;9284;52.298;21.164;2024-03-22T10:10:33;41.97;;;18.67;;
18316;SDS011;9284;52.298;21.164;2024-03-22T10:13:00;38.38;;;17.98;;
18316;SDS011;9284;52.298;21.164;2024-03-22T10:15:27;34.50;;;17.02;;
18316;SDS011;9284;52.298;21.164;2024-03-22T10:17:56;39.90;;;17.88;;
18316;SDS011;9284;52.298;21.164;2024-03-22T10:20:24;34.60;;;17.13;;
18316;SDS011;9284;52.298;21.164;2024-03-22T10:22:54;35.45;;;17.23;;
18316;SDS011;9284;52.298;21.164;2024-03-22T10:25:25;30.00;;;15.80;;
18316;SDS011;9284;52.298;21.164;2024-03-22T10:27:53;33.45;;;15.50;;
18316;SDS011;9284;52.298;21.164;2024-03-22T10:30:21;29.23;;;15.15;;
18316;SDS011;9284;52.298;21.164;2024-03-22T10:32:49;35.15;;;16.60;;
18316;SDS011;9284;52.298;21.164;2024-03-22T10:35:17;29.25;;;15.80;;
18316;SDS011;9284;52.298;21.164;2024-03-22T10:37:44;30.55;;;15.55;;
18316;SDS011;9284;52.298;21.164;2024-03-22T10:40:11;31.85;;;15.57;;
18316;SDS011;9284;52.298;21.164;2024-03-22T10:42:41;29.42;;;15.73;;
18316;SDS011;9284;52.298;21.164;2024-03-22T10:45:12;29.48;;;15.27;;
18316;SDS011;9284;52.298;21.164;2024-03-22T10:47:39;35.05;;;16.02;;
18316;SDS011;9284;52.298;21.164;2024-03-22T10:50:06;34.10;;;17.13;;
18316;SDS011;9284;52.298;21.164;2024-03-22T10:52:35;31.63;;;15.02;;
18316;SDS011;9284;52.298;21.164;2024-03-22T10:55:07;34.10;;;15.82;;
18316;SDS011;9284;52.298;21.164;2024-03-22T10:57:37;27.90;;;15.50;;
18316;SDS011;9284;52.298;21.164;2024-03-22T11:00:10;36.30;;;16.60;;
18316;SDS011;9284;52.298;21.164;2024-03-22T11:02:37;32.97;;;16.00;;
18316;SDS011;9284;52.298;21.164;2024-03-22T11:05:05;30.38;;;15.90;;
18316;SDS011;9284;52.298;21.164;2024-03-22T11:07:32;32.75;;;16.20;;
18316;SDS011;9284;52.298;21.164;2024-03-22T11:10:00;29.65;;;14.95;;
18316;SDS011;9284;52.298;21.164;2024-03-22T11:12:28;27.70;;;14.48;;
18316;SDS011;9284;52.298;21.164;2024-03-22T11:14:59;30.50;;;15.27;;
18316;SDS011;9284;52.298;21.164;2024-03-22T11:17:27;29.92;;;14.80;;
18316;SDS011;9284;52.298;21.164;2024-03-22T11:19:56;29.50;;;15.55;;
18316;SDS011;9284;52.298;21.164;2024-03-22T11:22:24;28.38;;;14.13;;
18316;SDS011;9284;52.298;21.164;2024-03-22T11:24:52;28.27;;;14.65;;
18316;SDS011;9284;52.298;21.164;2024-03-22T11:27:19;23.33;;;13.77;;
18316;SDS011;9284;52.298;21.164;2024-03-22T11:29:46;25.95;;;14.50;;
18316;SDS011;9284;52.298;21.164;2024-03-22T11:32:13;25.23;;;14.40;;
18316;SDS011;9284;52.298;21.164;2024-03-22T11:34:43;25.58;;;14.77;;
18316;SDS011;9284;52.298;21.164;2024-03-22T11:37:09;26.33;;;14.70;;
18316;SDS011;9284;52.298;21.164;2024-03-22T11:39:37;27.95;;;15.30;;
18316;SDS011;9284;52.298;21.164;2024-03-22T11:42:03;34.67;;;16.08;;
18316;SDS011;9284;52.298;21.164;2024-03-22T11:44:33;25.48;;;15.20;;
18316;SDS011;9284;52.298;21.164;2024-03-22T11:47:00;28.50;;;15.55;;
18316;SDS011;9284;52.298;21.164;2024-03-22T11:49:28;29.80;;;15.90;;
18316;SDS011;9284;52.298;21.164;2024-03-22T11:51:56;30.08;;;15.98;;
18316;SDS011;9284;52.298;21.164;2024-03-22T11:54:24;31.40;;;16.65;;
18316;SDS011;9284;52.298;21.164;2024-03-22T11:56:51;26.88;;;14.98;;
18316;SDS011;9284;52.298;21.164;2024-03-22T11:59:19;31.63;;;17.13;;
18316;SDS011;9284;52.298;21.164;2024-03-22T12:01:45;32.70;;;18.40;;
18316;SDS011;9284;52.298;21.164;2024-03-22T12:04:13;30.95;;;18.02;;
18316;SDS011;9284;52.298;21.164;2024-03-22T12:06:41;30.45;;;16.85;;
18316;SDS011;9284;52.298;21.164;2024-03-22T12:09:09;32.83;;;17.10;;
18316;SDS011;9284;52.298;21.164;2024-03-22T12:11:37;26.27;;;14.93;;
18316;SDS011;9284;52.298;21.164;2024-03-22T12:14:06;26.17;;;15.13;;
18316;SDS011;9284;52.298;21.164;2024-03-22T12:16:32;31.05;;;15.20;;
18316;SDS011;9284;52.298;21.164;2024-03-22T12:18:59;23.85;;;13.40;;
18316;SDS011;9284;52.298;21.164;2024-03-22T12:21:26;28.75;;;13.93;;
18316;SDS011;9284;52.298;21.164;2024-03-22T12:23:53;24.33;;;13.38;;
18316;SDS011;9284;52.298;21.164;2024-03-22T12:26:21;24.92;;;13.50;;
18316;SDS011;9284;52.298;21.164;2024-03-22T12:28:48;23.92;;;13.02;;
18316;SDS011;9284;52.298;21.164;2024-03-22T12:31:16;22.35;;;13.25;;
18316;SDS011;9284;52.298;21.164;2024-03-22T12:33:44;23.55;;;13.30;;
18316;SDS011;9284;52.298;21.164;2024-03-22T12:36:10;22.50;;;11.93;;
18316;SDS011;9284;52.298;21.164;2024-03-22T12:38:37;23.15;;;12.68;;
18316;SDS011;9284;52.298;21.164;2024-03-22T12:41:03;23.52;;;12.65;;
18316;SDS011;9284;52.298;21.164;2024-03-22T12:43:32;20.00;;;10.95;;
18316;SDS011;9284;52.298;21.164;2024-03-22T12:45:59;22.98;;;11.77;;
18316;SDS011;9284;52.298;21.164;2024-03-22T12:48:26;22.08;;;11.00;;
18316;SDS011;9284;52.298;21.164;2024-03-22T12:50:52;19.25;;;10.52;;
18316;SDS011;9284;52.298;21.164;2024-03-22T12:53:20;21.25;;;10.98;;
18316;SDS011;9284;52.298;21.164;2024-03-22T12:55:46;20.88;;;10.60;;
18316;SDS011;9284;52.298;21.164;2024-03-22T12:58:13;19.80;;;10.75;;
18316;SDS011;9284;52.298;21.164;2024-03-22T13:00:41;17.95;;;10.48;;
18316;SDS011;9284;52.298;21.164;2024-03-22T13:03:08;21.42;;;9.93;;
18316;SDS011;9284;52.298;21.164;2024-03-22T13:05:37;23.08;;;10.52;;
18316;SDS011;9284;52.298;21.164;2024-03-22T13:08:04;20.67;;;10.57;;
18316;SDS011;9284;52.298;21.164;2024-03-22T13:10:31;20.02;;;11.13;;
18316;SDS011;9284;52.298;21.164;2024-03-22T13:12:58;20.10;;;11.00;;
18316;SDS011;9284;52.298;21.164;2024-03-22T13:15:24;21.23;;;11.00;;
18316;SDS011;9284;52.298;21.164;2024-03-22T13:17:53;25.85;;;13.18;;
18316;SDS011;9284;52.298;21.164;2024-03-22T13:20:21;24.30;;;12.93;;
18316;SDS011;9284;52.298;21.164;2024-03-22T13:22:48;23.23;;;11.50;;
18316;SDS011;9284;52.298;21.164;2024-03-22T13:25:15;19.60;;;11.48;;
18316;SDS011;9284;52.298;21.164;2024-03-22T13:27:42;23.13;;;11.75;;
18316;SDS011;9284;52.298;21.164;2024-03-22T13:30:09;17.98;;;10.68;;
18316;SDS011;9284;52.298;21.164;2024-03-22T13:32:38;26.10;;;11.88;;
18316;SDS011;9284;52.298;21.164;2024-03-22T13:35:06;21.15;;;11.27;;
18316;SDS011;9284;52.298;21.164;2024-03-22T13:37:34;19.27;;;11.05;;
18316;SDS011;9284;52.298;21.164;2024-03-22T13:40:00;21.35;;;11.40;;
18316;SDS011;9284;52.298;21.164;2024-03-22T13:42:28;20.92;;;11.02;;
18316;SDS011;9284;52.298;21.164;2024-03-22T13:44:55;18.55;;;10.60;;
18316;SDS011;9284;52.298;21.164;2024-03-22T13:47:23;19.73;;;10.55;;
18316;SDS011;9284;52.298;21.164;2024-03-22T13:49:52;23.92;;;11.52;;
18316;SDS011;9284;52.298;21.164;2024-03-22T13:52:20;19.83;;;11.02;;
18316;SDS011;9284;52.298;21.164;2024-03-22T13:54:47;20.52;;;11.57;;
18316;SDS011;9284;52.298;21.164;2024-03-22T13:57:15;22.52;;;11.75;;
18316;SDS011;9284;52.298;21.164;2024-03-22T13:59:41;21.25;;;11.93;;
18316;SDS011;9284;52.298;21.164;2024-03-22T14:02:09;20.58;;;11.13;;
18316;SDS011;9284;52.298;21.164;2024-03-22T14:04:37;21.52;;;12.18;;
18316;SDS011;9284;52.298;21.164;2024-03-22T14:07:03;18.80;;;10.60;;
18316;SDS011;9284;52.298;21.164;2024-03-22T14:09:31;21.48;;;11.95;;
18316;SDS011;9284;52.298;21.164;2024-03-22T14:11:58;23.50;;;12.05;;
18316;SDS011;9284;52.298;21.164;2024-03-22T14:14:25;18.23;;;11.27;;
18316;SDS011;9284;52.298;21.164;2024-03-22T14:16:51;19.27;;;11.15;;
18316;SDS011;9284;52.298;21.164;2024-03-22T14:19:19;20.30;;;12.00;;